Time;durP1;ratioP1;P1;durP2;ratioP2;P2;SDS_P1;SDS_P2;PMS_P1;PMS_P2;Temp;Humidity;BMP_temperature;BMP_pressure;BME280_temperature;BME280_humidity;BME280_pressure;Samples;Min_cycle;Max_cycle;Signal;HPM_P1;HPM_P2
2022/07/07 00:01:56;;;;;;;12.68;11.88;;;20.40;63.80;;;;;;5028005;28;20033;-82
2022/07/07 00:04:23;;;;;;;11.52;10.68;;;20.40;63.80;;;;;;5022857;28;20042;-82
2022/07/07 00:06:49;;;;;;;11.25;10.60;;;20.30;64.70;;;;;;5024263;28;20025;-82
2022/07/07 00:09:15;;;;;;;10.52;9.93;;;20.20;64.60;;;;;;5045360;28;20053;-82
2022/07/07 00:11:41;;;;;;;10.40;9.90;;;20.10;65.20;;;;;;5045433;28;20032;-83
2022/07/07 00:14:08;;;;;;;10.23;9.40;;;20.00;65.60;;;;;;5028772;28;20377;-82
2022/07/07 00:16:36;;;;;;;11.25;10.55;;;19.90;66.20;;;;;;5020806;28;20038;-82
2022/07/07 00:19:02;;;;;;;11.35;10.75;;;19.90;66.10;;;;;;5003528;28;20488;-82
2022/07/07 00:21:28;;;;;;;11.25;10.55;;;19.80;66.70;;;;;;5028693;28;20104;-82
2022/07/07 00:23:54;;;;;;;13.32;12.48;;;19.90;66.60;;;;;;5011154;28;20045;-82
2022/07/07 00:26:20;;;;;;;11.43;10.73;;;19.90;66.30;;;;;;5029321;28;20463;-82
2022/07/07 00:28:48;;;;;;;11.60;10.93;;;19.90;66.30;;;;;;5019070;28;20049;-82
2022/07/07 00:31:14;;;;;;;12.45;11.25;;;20.00;66.30;;;;;;5037875;28;20030;-82
2022/07/07 00:33:40;;;;;;;12.20;11.40;;;20.10;66.00;;;;;;5029519;28;20033;-82
2022/07/07 00:36:07;;;;;;;12.43;11.70;;;20.10;66.00;;;;;;5011175;28;20038;-82
2022/07/07 00:38:34;;;;;;;11.52;10.73;;;19.90;66.80;;;;;;5014242;28;20026;-82
2022/07/07 00:41:00;;;;;;;13.05;12.15;;;19.70;67.70;;;;;;5044434;28;20029;-82
2022/07/07 00:43:26;;;;;;;12.98;12.23;;;19.60;68.70;;;;;;5027913;28;20387;-82
2022/07/07 00:45:53;;;;;;;13.35;12.38;;;19.70;68.30;;;;;;5029116;28;20542;-82
2022/07/07 00:48:19;;;;;;;14.55;13.23;;;19.80;68.10;;;;;;5027870;28;20480;-82
2022/07/07 00:50:46;;;;;;;14.57;13.55;;;19.60;68.80;;;;;;5028483;28;20036;-82
2022/07/07 00:53:12;;;;;;;15.70;14.60;;;19.50;69.50;;;;;;5045308;28;20037;-81
2022/07/07 00:55:39;;;;;;;15.68;14.65;;;19.50;69.80;;;;;;5020382;28;20839;-82
2022/07/07 00:58:05;;;;;;;16.70;15.50;;;19.40;69.80;;;;;;5036530;28;20033;-82
2022/07/07 01:00:32;;;;;;;17.65;16.65;;;19.50;69.90;;;;;;5044234;28;20499;-82
2022/07/07 01:02:58;;;;;;;19.20;17.90;;;19.50;69.90;;;;;;5011132;28;20050;-82
2022/07/07 01:05:24;;;;;;;20.10;18.90;;;19.50;70.10;;;;;;5015066;28;20131;-82
2022/07/07 01:07:51;;;;;;;23.90;22.50;;;19.50;70.10;;;;;;5032195;28;20038;-81
2022/07/07 01:10:17;;;;;;;21.98;20.50;;;19.50;69.90;;;;;;5043832;28;20057;-82
2022/07/07 01:12:43;;;;;;;23.25;21.88;;;19.50;70.40;;;;;;5001185;28;20046;-82
2022/07/07 01:15:10;;;;;;;23.58;22.20;;;19.50;70.50;;;;;;5031819;28;20476;-82
2022/07/07 01:17:37;;;;;;;23.70;22.23;;;19.50;70.60;;;;;;5049544;28;20108;-82
2022/07/07 01:20:05;;;;;;;23.55;21.50;;;19.50;70.40;;;;;;5014921;28;20037;-82
2022/07/07 01:22:33;;;;;;;32.42;30.73;;;19.40;70.70;;;;;;5031849;28;20037;-82
2022/07/07 01:24:59;;;;;;;35.10;33.10;;;19.40;70.70;;;;;;5031891;28;20045;-82
2022/07/07 01:27:25;;;;;;;33.13;31.25;;;19.40;70.90;;;;;;5048258;28;20387;-82
2022/07/07 01:29:55;;;;;;;30.55;28.67;;;19.40;71.20;;;;;;5031417;28;20377;-82
2022/07/07 01:32:22;;;;;;;32.28;30.42;;;19.30;71.70;;;;;;5033062;28;20041;-82
2022/07/07 01:34:48;;;;;;;31.42;29.67;;;19.40;71.30;;;;;;5029182;28;20046;-82
2022/07/07 01:37:14;;;;;;;33.08;31.15;;;19.40;71.60;;;;;;5031692;28;20032;-82
2022/07/07 01:39:41;;;;;;;33.25;31.38;;;19.40;71.40;;;;;;5048365;28;20036;-82
2022/07/07 01:42:07;;;;;;;31.85;29.95;;;19.40;71.20;;;;;;5015489;28;20033;-82
2022/07/07 01:44:34;;;;;;;33.75;31.77;;;19.50;71.20;;;;;;5032338;28;20022;-82
2022/07/07 01:47:00;;;;;;;35.13;32.97;;;19.50;70.70;;;;;;5047438;28;20080;-82
2022/07/07 01:49:26;;;;;;;34.20;31.83;;;19.70;70.00;;;;;;5041729;28;20034;-82
2022/07/07 01:51:52;;;;;;;34.53;32.55;;;19.80;69.90;;;;;;5020161;28;20033;-82
2022/07/07 01:54:18;;;;;;;35.45;33.20;;;19.80;69.50;;;;;;5016598;28;20055;-82
2022/07/07 01:56:45;;;;;;;28.52;26.75;;;19.80;69.30;;;;;;5031324;28;20032;-82
2022/07/07 01:59:12;;;;;;;26.50;24.95;;;19.90;69.40;;;;;;5030992;28;20028;-81
2022/07/07 02:01:38;;;;;;;31.42;29.52;;;19.90;69.20;;;;;;5030663;28;20040;-82
2022/07/07 02:04:05;;;;;;;34.45;32.15;;;19.80;69.50;;;;;;5030904;28;20034;-82
2022/07/07 02:06:31;;;;;;;38.65;36.22;;;19.60;70.50;;;;;;5047633;28;20025;-82
2022/07/07 02:08:57;;;;;;;40.42;38.08;;;19.50;70.60;;;;;;5046581;28;20377;-82
2022/07/07 02:11:23;;;;;;;36.95;34.88;;;19.60;70.10;;;;;;5030430;28;20036;-82
2022/07/07 02:13:51;;;;;;;39.58;37.15;;;19.60;70.10;;;;;;5021304;28;20042;-82
2022/07/07 02:16:19;;;;;;;36.83;34.63;;;19.50;71.00;;;;;;5023931;28;20030;-82
2022/07/07 02:18:46;;;;;;;30.23;28.42;;;19.30;72.20;;;;;;5046287;28;20494;-82
2022/07/07 02:21:13;;;;;;;23.58;22.05;;;19.00;73.40;;;;;;5029313;28;20041;-81
2022/07/07 02:23:41;;;;;;;23.63;22.05;;;18.90;73.90;;;;;;5030339;28;20044;-82
2022/07/07 02:26:07;;;;;;;24.25;22.55;;;19.00;73.50;;;;;;5034253;28;20037;-82
2022/07/07 02:28:33;;;;;;;18.30;17.00;;;19.00;73.10;;;;;;5034872;28;20045;-81
2022/07/07 02:31:00;;;;;;;18.42;17.20;;;18.90;73.60;;;;;;5020024;28;20037;-82
2022/07/07 02:33:26;;;;;;;20.83;19.27;;;19.00;73.30;;;;;;5029565;28;20459;-82
2022/07/07 02:35:52;;;;;;;20.52;18.92;;;19.10;72.30;;;;;;5046482;28;20040;-82
2022/07/07 02:38:18;;;;;;;20.95;19.35;;;19.30;71.50;;;;;;5017171;28;20161;-82
2022/07/07 02:40:45;;;;;;;20.08;18.55;;;19.60;70.70;;;;;;5042980;28;20468;-82
2022/07/07 02:43:14;;;;;;;20.48;18.92;;;19.70;70.20;;;;;;5046008;28;20037;-82
2022/07/07 02:45:41;;;;;;;21.25;19.65;;;19.60;70.10;;;;;;5028926;28;20034;-82
2022/07/07 02:48:08;;;;;;;20.10;18.70;;;19.70;69.90;;;;;;4996799;28;20048;-82
2022/07/07 02:50:34;;;;;;;22.27;20.48;;;19.70;69.60;;;;;;5014833;28;20042;-81
2022/07/07 02:53:00;;;;;;;22.27;20.63;;;19.80;69.60;;;;;;5018011;28;20488;-82
2022/07/07 02:55:26;;;;;;;21.75;20.25;;;19.70;69.60;;;;;;5007398;28;20052;-82
2022/07/07 02:57:52;;;;;;;22.00;20.25;;;19.60;70.00;;;;;;5029164;28;20041;-82
2022/07/07 03:00:19;;;;;;;21.40;19.83;;;19.60;70.20;;;;;;5029947;28;20025;-82
2022/07/07 03:02:45;;;;;;;21.80;19.90;;;19.50;70.40;;;;;;5030420;28;20029;-82
2022/07/07 03:05:11;;;;;;;21.30;19.73;;;19.30;70.70;;;;;;5024351;28;20041;-81
2022/07/07 03:07:38;;;;;;;24.27;22.48;;;19.30;71.00;;;;;;4978284;28;1332947;-82
2022/07/07 03:10:05;;;;;;;20.67;19.08;;;19.30;71.10;;;;;;5043108;28;20393;-82
2022/07/07 03:12:31;;;;;;;21.23;19.50;;;19.20;71.30;;;;;;5033859;28;20361;-82
2022/07/07 03:14:57;;;;;;;20.50;18.80;;;19.30;70.80;;;;;;5029809;28;20041;-82
2022/07/07 03:17:23;;;;;;;20.48;18.73;;;19.20;71.50;;;;;;5031496;28;20523;-82
2022/07/07 03:19:50;;;;;;;20.85;19.13;;;19.20;71.10;;;;;;5046391;28;20029;-82
2022/07/07 03:22:16;;;;;;;19.88;18.17;;;19.30;70.70;;;;;;5046148;28;20026;-82
2022/07/07 03:24:42;;;;;;;19.67;17.88;;;19.30;70.70;;;;;;5045217;28;20041;-82
2022/07/07 03:27:08;;;;;;;20.70;19.27;;;19.20;71.00;;;;;;5030356;28;20033;-82
2022/07/07 03:29:34;;;;;;;22.10;20.27;;;19.30;70.40;;;;;;5031802;28;20479;-82
2022/07/07 03:32:00;;;;;;;20.35;18.85;;;19.30;70.60;;;;;;5017870;28;20122;-82
2022/07/07 03:34:26;;;;;;;19.88;18.45;;;19.20;70.40;;;;;;5040980;28;20040;-82
2022/07/07 03:36:53;;;;;;;20.35;18.73;;;19.30;70.30;;;;;;5045885;28;20029;-82
2022/07/07 03:39:19;;;;;;;19.10;17.73;;;19.20;71.00;;;;;;5029063;28;20472;-82
2022/07/07 03:41:45;;;;;;;18.50;17.05;;;19.10;71.10;;;;;;5046272;28;20037;-82
2022/07/07 03:44:11;;;;;;;18.25;17.05;;;19.10;71.10;;;;;;5028985;28;20048;-82
2022/07/07 03:46:37;;;;;;;17.35;15.95;;;19.10;70.80;;;;;;5020911;28;20030;-82
2022/07/07 03:49:03;;;;;;;20.92;19.00;;;19.00;71.60;;;;;;5017583;28;20038;-82
2022/07/07 03:51:29;;;;;;;22.08;20.45;;;18.90;71.30;;;;;;5016137;28;20025;-82
2022/07/07 03:53:55;;;;;;;22.20;20.65;;;19.00;71.20;;;;;;5028983;28;20040;-82
2022/07/07 03:56:22;;;;;;;20.08;18.48;;;19.00;71.30;;;;;;5030228;28;20056;-82
2022/07/07 03:58:48;;;;;;;19.55;18.25;;;19.10;70.70;;;;;;5030298;28;20025;-82
2022/07/07 04:01:14;;;;;;;19.15;17.65;;;19.10;70.70;;;;;;5029539;28;20036;-82
2022/07/07 04:03:40;;;;;;;20.50;19.00;;;19.10;70.50;;;;;;5028413;28;20468;-82
2022/07/07 04:06:06;;;;;;;22.48;20.55;;;19.20;70.40;;;;;;5016932;28;20056;-82
2022/07/07 04:08:32;;;;;;;21.90;20.20;;;19.20;69.90;;;;;;5029710;28;20068;-81
2022/07/07 04:10:58;;;;;;;21.23;19.67;;;19.20;70.10;;;;;;5018390;28;20034;-82
2022/07/07 04:13:25;;;;;;;21.27;19.77;;;19.20;70.20;;;;;;5023366;28;20049;-82
2022/07/07 04:15:51;;;;;;;18.92;17.58;;;19.20;69.70;;;;;;5028382;28;20041;-82
2022/07/07 04:18:17;;;;;;;19.75;18.10;;;19.20;69.60;;;;;;5045541;28;20032;-82
2022/07/07 04:20:43;;;;;;;18.58;17.08;;;19.20;69.50;;;;;;5012711;28;20440;-82
2022/07/07 04:23:09;;;;;;;19.58;17.83;;;19.30;69.30;;;;;;5017378;28;20022;-82
2022/07/07 04:25:35;;;;;;;20.60;18.88;;;19.30;69.30;;;;;;5018659;28;20045;-82
2022/07/07 04:28:02;;;;;;;18.50;17.30;;;19.30;69.20;;;;;;5033928;28;20041;-82
2022/07/07 04:30:28;;;;;;;19.50;17.80;;;19.30;69.40;;;;;;5031597;28;20029;-82
2022/07/07 04:32:54;;;;;;;18.83;17.23;;;19.30;69.30;;;;;;4995518;28;20034;-82
2022/07/07 04:35:20;;;;;;;19.20;17.40;;;19.30;69.00;;;;;;5029262;28;20048;-82
2022/07/07 04:37:46;;;;;;;19.17;17.70;;;19.30;69.00;;;;;;5019281;28;20374;-82
2022/07/07 04:40:12;;;;;;;18.65;17.27;;;19.30;69.30;;;;;;5016909;28;20045;-82
2022/07/07 04:42:38;;;;;;;19.42;18.00;;;19.20;69.70;;;;;;5033207;28;20013;-82
2022/07/07 04:45:05;;;;;;;19.30;17.52;;;19.20;69.30;;;;;;5013365;28;20029;-81
2022/07/07 04:47:31;;;;;;;19.80;18.13;;;19.30;69.30;;;;;;5029026;28;20033;-82
2022/07/07 04:49:57;;;;;;;19.05;17.65;;;19.30;69.80;;;;;;5017785;28;20048;-82
2022/07/07 04:52:23;;;;;;;20.02;18.50;;;19.30;69.20;;;;;;5016609;28;20048;-82
2022/07/07 04:54:49;;;;;;;23.13;21.58;;;19.30;69.30;;;;;;5017950;28;20045;-82
2022/07/07 04:57:15;;;;;;;22.52;20.90;;;19.30;69.10;;;;;;5029490;28;20026;-81
2022/07/07 04:59:41;;;;;;;21.20;19.65;;;19.20;69.40;;;;;;5012431;28;20038;-81
2022/07/07 05:02:08;;;;;;;22.85;21.15;;;19.20;69.50;;;;;;5016463;28;20057;-82
2022/07/07 05:04:34;;;;;;;24.02;22.42;;;19.30;69.10;;;;;;5017940;28;20025;-82
2022/07/07 05:07:00;;;;;;;23.33;21.83;;;19.30;69.60;;;;;;5021354;28;20065;-82
2022/07/07 05:09:26;;;;;;;21.23;19.52;;;19.30;70.00;;;;;;5016324;28;20058;-82
2022/07/07 05:11:52;;;;;;;23.02;21.38;;;19.30;70.30;;;;;;5044947;28;20025;-82
2022/07/07 05:14:18;;;;;;;20.75;18.92;;;19.30;70.90;;;;;;5030224;28;20041;-82
2022/07/07 05:16:44;;;;;;;19.50;17.88;;;19.30;71.10;;;;;;5028831;28;20040;-82
2022/07/07 05:19:10;;;;;;;16.88;15.23;;;19.40;70.70;;;;;;5027185;28;20037;-82
2022/07/07 05:21:37;;;;;;;17.17;15.77;;;19.50;70.50;;;;;;5011610;28;20052;-82
2022/07/07 05:24:03;;;;;;;17.52;16.23;;;19.40;70.60;;;;;;5011965;28;20037;-82
2022/07/07 05:26:29;;;;;;;18.67;17.25;;;19.60;70.10;;;;;;5030090;28;20412;-82
2022/07/07 05:28:55;;;;;;;17.60;16.13;;;19.60;70.00;;;;;;5034228;28;20515;-82
2022/07/07 05:31:21;;;;;;;16.60;15.40;;;19.70;70.00;;;;;;5038107;28;20025;-82
2022/07/07 05:33:47;;;;;;;16.63;15.23;;;19.80;69.30;;;;;;5026853;28;20045;-82
2022/07/07 05:36:14;;;;;;;17.90;16.08;;;19.90;69.00;;;;;;5044575;28;20041;-82
2022/07/07 05:38:40;;;;;;;16.50;15.07;;;20.10;68.70;;;;;;5028395;28;20041;-83
2022/07/07 05:41:06;;;;;;;16.60;15.23;;;20.30;68.50;;;;;;5044814;28;20416;-82
2022/07/07 05:43:32;;;;;;;17.52;16.05;;;20.50;67.30;;;;;;5022045;28;20034;-83
2022/07/07 05:45:58;;;;;;;16.73;15.48;;;20.60;66.80;;;;;;5017260;28;20044;-82
2022/07/07 05:48:26;;;;;;;17.25;15.82;;;20.60;66.40;;;;;;5030507;28;20021;-83
2022/07/07 05:50:52;;;;;;;16.45;15.05;;;20.60;66.50;;;;;;5046480;28;20036;-82
2022/07/07 05:53:18;;;;;;;17.13;15.73;;;20.60;65.80;;;;;;5031774;28;20041;-82
2022/07/07 05:55:44;;;;;;;17.52;16.05;;;20.50;66.30;;;;;;5047901;28;20037;-83
2022/07/07 05:58:10;;;;;;;17.88;16.23;;;20.60;66.40;;;;;;5031217;28;20028;-82
2022/07/07 06:00:36;;;;;;;18.08;16.60;;;20.80;65.40;;;;;;5032174;28;20033;-82
2022/07/07 06:03:02;;;;;;;19.30;17.88;;;20.90;65.40;;;;;;5047411;28;20040;-83
2022/07/07 06:05:28;;;;;;;18.05;16.55;;;20.90;65.00;;;;;;5031681;28;20049;-83
2022/07/07 06:07:55;;;;;;;17.77;16.33;;;20.70;65.70;;;;;;5013993;28;20076;-82
2022/07/07 06:10:21;;;;;;;17.00;15.70;;;20.60;66.40;;;;;;5025542;28;20460;-83
2022/07/07 06:12:48;;;;;;;18.13;16.52;;;20.70;66.50;;;;;;5020603;28;20033;-83
2022/07/07 06:15:16;;;;;;;18.60;16.75;;;20.80;65.70;;;;;;5031750;28;20037;-83
2022/07/07 06:17:43;;;;;;;18.75;17.20;;;20.80;65.90;;;;;;5047407;28;20032;-83
2022/07/07 06:20:09;;;;;;;19.60;18.17;;;21.00;65.90;;;;;;5014913;28;20045;-83
2022/07/07 06:22:35;;;;;;;20.92;19.33;;;21.10;64.90;;;;;;5040013;28;20032;-83
2022/07/07 06:25:02;;;;;;;20.63;19.15;;;21.20;64.30;;;;;;5023627;28;20504;-83
2022/07/07 06:27:28;;;;;;;23.25;21.73;;;21.20;64.60;;;;;;5032154;28;20037;-83
2022/07/07 06:29:56;;;;;;;21.85;20.13;;;21.20;64.00;;;;;;5032081;28;20040;-83
2022/07/07 06:32:22;;;;;;;22.45;20.52;;;21.20;64.80;;;;;;5032128;28;20033;-83
2022/07/07 06:34:48;;;;;;;21.83;20.10;;;21.20;64.50;;;;;;5031664;28;20072;-83
2022/07/07 06:37:14;;;;;;;21.40;19.90;;;21.20;64.20;;;;;;5031999;28;20040;-82
2022/07/07 06:39:40;;;;;;;20.65;19.35;;;21.30;64.40;;;;;;5031851;28;20026;-83
2022/07/07 06:42:06;;;;;;;20.92;19.42;;;21.30;64.70;;;;;;5047163;28;20041;-83
2022/07/07 06:44:32;;;;;;;21.60;19.75;;;21.40;63.80;;;;;;5032570;28;20037;-82
2022/07/07 06:46:59;;;;;;;21.20;19.70;;;21.30;65.30;;;;;;5012921;28;20037;-83
2022/07/07 06:49:27;;;;;;;21.95;20.05;;;21.50;64.20;;;;;;5046531;28;20048;-83
2022/07/07 06:51:54;;;;;;;20.67;19.13;;;21.70;63.30;;;;;;5031327;28;20036;-82
2022/07/07 06:54:20;;;;;;;21.30;19.60;;;21.80;62.90;;;;;;5046979;28;20399;-83
2022/07/07 06:56:46;;;;;;;20.63;19.13;;;21.90;62.70;;;;;;5030534;28;20048;-83
2022/07/07 06:59:12;;;;;;;20.92;19.38;;;21.80;62.60;;;;;;5030530;28;20052;-82
2022/07/07 07:01:38;;;;;;;21.88;20.08;;;21.90;62.60;;;;;;5036962;28;20041;-83
2022/07/07 07:04:07;;;;;;;21.65;19.85;;;21.70;62.80;;;;;;5021687;28;20630;-83
2022/07/07 07:06:33;;;;;;;22.35;20.80;;;21.80;63.00;;;;;;5046326;28;20388;-83
2022/07/07 07:08:59;;;;;;;21.73;20.20;;;21.90;62.50;;;;;;4997348;28;20050;-83
2022/07/07 07:11:26;;;;;;;20.70;19.30;;;21.90;62.40;;;;;;5009506;28;20064;-83
2022/07/07 07:13:52;;;;;;;20.48;18.95;;;21.90;62.60;;;;;;5029899;28;20036;-82
2022/07/07 07:16:18;;;;;;;20.52;19.00;;;21.90;62.40;;;;;;5029165;28;20040;-83
2022/07/07 07:18:44;;;;;;;20.85;19.45;;;21.90;62.40;;;;;;5029773;28;20472;-83
2022/07/07 07:21:11;;;;;;;20.92;19.33;;;22.00;61.90;;;;;;5046462;28;20029;-83
2022/07/07 07:23:38;;;;;;;21.35;20.15;;;22.00;61.90;;;;;;5030784;28;20036;-83
2022/07/07 07:26:07;;;;;;;20.02;18.50;;;22.10;61.80;;;;;;5030751;28;20420;-83
2022/07/07 07:28:34;;;;;;;21.77;20.27;;;22.20;61.70;;;;;;5031169;28;20029;-83
2022/07/07 07:31:00;;;;;;;19.77;18.48;;;22.20;61.30;;;;;;5045534;28;20045;-83
2022/07/07 07:33:27;;;;;;;20.30;19.00;;;22.40;61.10;;;;;;5029571;28;20108;-83
2022/07/07 07:35:53;;;;;;;20.02;18.73;;;22.30;60.80;;;;;;5029624;28;20041;-83
2022/07/07 07:38:19;;;;;;;20.52;18.95;;;22.40;61.00;;;;;;5026438;28;20041;-83
2022/07/07 07:40:45;;;;;;;20.30;18.75;;;22.50;60.50;;;;;;5022450;28;20514;-83
2022/07/07 07:43:11;;;;;;;20.15;18.70;;;22.50;60.50;;;;;;5022568;28;20040;-82
2022/07/07 07:45:37;;;;;;;19.10;17.90;;;22.50;60.40;;;;;;5030053;28;20507;-83
2022/07/07 07:48:04;;;;;;;19.67;18.27;;;22.70;60.20;;;;;;5013463;28;20044;-83
2022/07/07 07:50:31;;;;;;;21.23;19.60;;;22.80;59.80;;;;;;5013353;28;20033;-83
2022/07/07 07:52:57;;;;;;;21.40;19.67;;;23.00;60.40;;;;;;5045464;28;20038;-84
2022/07/07 07:55:23;;;;;;;21.48;19.98;;;23.30;58.90;;;;;;5046198;28;20044;-84
2022/07/07 07:57:50;;;;;;;23.15;21.63;;;23.50;58.40;;;;;;5028915;28;20034;-84
2022/07/07 08:00:17;;;;;;;21.55;20.23;;;23.60;57.90;;;;;;5044917;28;20033;-84
2022/07/07 08:02:43;;;;;;;26.08;24.27;;;23.60;57.40;;;;;;5029267;28;20383;-84
2022/07/07 08:05:12;;;;;;;23.50;21.77;;;23.60;57.70;;;;;;5024751;28;20029;-85
2022/07/07 08:07:39;;;;;;;22.83;21.15;;;23.60;57.40;;;;;;5028216;28;20037;-85
2022/07/07 08:10:06;;;;;;;24.10;22.63;;;23.60;57.50;;;;;;5025773;28;20034;-84
2022/07/07 08:12:32;;;;;;;23.23;21.83;;;23.50;57.80;;;;;;5032053;28;20025;-84
2022/07/07 08:14:58;;;;;;;25.63;23.88;;;23.70;57.40;;;;;;5045239;28;20506;-85
2022/07/07 08:17:24;;;;;;;23.48;22.08;;;24.00;58.00;;;;;;5029173;28;20041;-85
2022/07/07 08:19:50;;;;;;;25.75;24.15;;;24.30;56.30;;;;;;5019097;28;20385;-85
2022/07/07 08:22:16;;;;;;;24.33;22.83;;;24.50;55.70;;;;;;5023221;28;20044;-86
2022/07/07 08:24:43;;;;;;;23.52;21.92;;;24.80;56.50;;;;;;5029923;28;20388;-85
2022/07/07 08:27:09;;;;;;;24.30;22.63;;;24.80;54.10;;;;;;5028755;28;20026;-85
2022/07/07 08:29:38;;;;;;;25.15;23.52;;;24.60;54.40;;;;;;5030756;28;20388;-85
2022/07/07 08:32:10;;;;;;;28.92;26.92;;;24.60;54.50;;;;;;5044254;28;20419;-86
2022/07/07 08:34:37;;;;;;;27.00;25.48;;;24.90;54.10;;;;;;5029381;28;20048;-85
2022/07/07 08:37:04;;;;;;;28.23;26.25;;;24.80;53.70;;;;;;5044994;28;20108;-85
2022/07/07 08:39:30;;;;;;;26.80;25.10;;;24.70;54.10;;;;;;5044970;28;20029;-84
2022/07/07 08:41:56;;;;;;;27.25;25.35;;;24.70;54.20;;;;;;5029241;28;20025;-85
2022/07/07 08:44:22;;;;;;;25.65;24.25;;;24.70;54.40;;;;;;5032194;28;20037;-85
2022/07/07 08:46:48;;;;;;;27.15;25.42;;;24.70;54.30;;;;;;5025727;28;20041;-85
2022/07/07 08:49:14;;;;;;;26.05;24.33;;;24.70;54.50;;;;;;5045153;28;20461;-84
2022/07/07 08:51:41;;;;;;;30.85;28.90;;;24.80;54.30;;;;;;5029749;28;20037;-85
2022/07/07 08:54:09;;;;;;;28.25;26.45;;;24.90;54.90;;;;;;5028705;28;20024;-85
2022/07/07 08:56:36;;;;;;;30.60;28.70;;;25.20;53.40;;;;;;5029078;28;20026;-85
2022/07/07 08:59:02;;;;;;;30.38;28.40;;;25.30;52.60;;;;;;5017531;28;20040;-86
2022/07/07 09:01:29;;;;;;;31.63;29.92;;;25.40;52.90;;;;;;5017244;28;20038;-85
2022/07/07 09:03:55;;;;;;;31.17;29.38;;;25.50;52.60;;;;;;5020634;28;20404;-84
2022/07/07 09:06:21;;;;;;;30.25;28.55;;;25.70;52.10;;;;;;5028802;28;20029;-85
2022/07/07 09:08:47;;;;;;;33.20;31.35;;;25.80;52.00;;;;;;5030233;28;20041;-85
2022/07/07 09:11:13;;;;;;;32.30;30.30;;;25.80;51.90;;;;;;5029463;28;20040;-85
2022/07/07 09:13:40;;;;;;;29.50;27.70;;;25.80;52.80;;;;;;5020483;28;20041;-85
2022/07/07 09:16:16;;;;;;;28.70;26.92;;;25.90;51.20;;;;;;5018198;28;20042;-85
2022/07/07 09:18:46;;;;;;;31.92;30.13;;;25.90;51.20;;;;;;5017160;28;20029;-85
2022/07/07 09:21:29;;;;;;;32.53;30.40;;;25.80;51.40;;;;;;5027822;28;20499;-85
2022/07/07 09:24:02;;;;;;;30.00;28.30;;;26.00;50.80;;;;;;5013318;28;20034;-85
2022/07/07 09:26:39;;;;;;;31.13;29.42;;;25.70;50.70;;;;;;5032935;28;20034;-85
2022/07/07 09:29:06;;;;;;;34.53;32.30;;;25.70;51.30;;;;;;5048840;28;20046;-85
2022/07/07 09:31:58;;;;;;;29.63;27.77;;;25.80;50.30;;;;;;5014504;28;20033;-85
2022/07/07 09:34:29;;;;;;;29.50;27.67;;;25.90;50.80;;;;;;5048305;28;20030;-85
2022/07/07 09:39:49;;;;;;;29.48;27.85;;;26.10;49.60;;;;;;5024925;28;20134;-85
2022/07/07 09:42:29;;;;;;;31.60;29.80;;;25.80;49.70;;;;;;5016645;28;20041;-85
2022/07/07 09:44:56;;;;;;;30.47;28.87;;;25.70;50.60;;;;;;5015878;28;20030;-85
2022/07/07 09:47:23;;;;;;;30.50;28.70;;;25.80;50.80;;;;;;5031919;28;20045;-85
2022/07/07 09:50:03;;;;;;;30.92;29.13;;;25.80;50.60;;;;;;5031700;28;20021;-85
2022/07/07 09:52:31;;;;;;;29.80;27.75;;;25.90;50.30;;;;;;5041552;28;20361;-86
2022/07/07 09:54:57;;;;;;;30.02;28.15;;;26.00;49.90;;;;;;5021768;28;20049;-85
2022/07/07 09:57:23;;;;;;;29.02;27.13;;;25.90;50.10;;;;;;5048048;28;20033;-86
2022/07/07 09:59:50;;;;;;;29.85;28.20;;;25.60;50.50;;;;;;5048316;28;20033;-85
2022/07/07 10:02:29;;;;;;;29.98;28.45;;;25.80;50.10;;;;;;5018245;28;20030;-85
2022/07/07 10:04:56;;;;;;;30.90;29.20;;;26.00;49.40;;;;;;5019947;28;20052;-85
2022/07/07 10:07:24;;;;;;;31.65;29.85;;;25.80;49.80;;;;;;5029781;28;20030;-85
2022/07/07 10:09:59;;;;;;;30.27;28.67;;;25.60;50.20;;;;;;5030688;28;20494;-85
2022/07/07 10:12:27;;;;;;;31.33;29.73;;;25.80;49.60;;;;;;5031120;28;20038;-85
2022/07/07 10:14:58;;;;;;;31.73;30.02;;;26.00;48.80;;;;;;5031088;28;20034;-85
2022/07/07 10:17:25;;;;;;;33.63;32.00;;;26.30;48.00;;;;;;5032030;28;20484;-85
2022/07/07 10:19:51;;;;;;;36.40;34.50;;;26.60;47.50;;;;;;5029373;28;20029;-84
2022/07/07 10:22:18;;;;;;;32.88;31.02;;;26.90;47.10;;;;;;5047657;28;20021;-85
2022/07/07 10:24:44;;;;;;;36.60;34.80;;;26.80;47.40;;;;;;5031889;28;20367;-86
2022/07/07 10:27:15;;;;;;;34.53;32.80;;;26.70;47.80;;;;;;5031077;28;20030;-85
2022/07/07 10:29:52;;;;;;;34.10;32.20;;;26.90;47.00;;;;;;5031283;28;20464;-85
2022/07/07 10:32:37;;;;;;;34.63;32.78;;;26.60;47.30;;;;;;5015376;28;20040;-85
2022/07/07 10:35:12;;;;;;;33.90;32.10;;;26.30;48.30;;;;;;5046578;28;20045;-86
2022/07/07 10:37:48;;;;;;;32.72;31.10;;;26.10;49.20;;;;;;5023594;28;20026;-85
2022/07/07 10:40:21;;;;;;;33.17;31.27;;;25.80;50.00;;;;;;5020399;28;20022;-85
2022/07/07 10:43:14;;;;;;;30.85;29.25;;;25.80;49.80;;;;;;5021315;28;20036;-85
2022/07/07 10:45:48;;;;;;;30.13;28.63;;;25.90;49.60;;;;;;5032220;28;20029;-85
2022/07/07 10:48:42;;;;;;;29.73;28.02;;;26.10;49.30;;;;;;5032121;28;20025;-85
2022/07/07 10:51:21;;;;;;;30.10;28.50;;;26.10;49.10;;;;;;5012017;28;20045;-84
2022/07/07 10:54:06;;;;;;;29.42;27.98;;;25.90;49.00;;;;;;5028869;28;20033;-85
2022/07/07 10:56:51;;;;;;;30.00;28.50;;;25.80;49.60;;;;;;5015990;28;20041;-84
2022/07/07 10:59:18;;;;;;;31.33;29.63;;;25.70;49.60;;;;;;5031956;28;20041;-85
2022/07/07 11:02:02;;;;;;;31.92;30.13;;;25.70;49.90;;;;;;5046364;28;20448;-85
2022/07/07 11:04:44;;;;;;;32.33;30.67;;;25.80;49.80;;;;;;5025287;28;20029;-85
2022/07/07 11:07:21;;;;;;;31.10;29.60;;;25.80;49.70;;;;;;5027985;28;20037;-84
2022/07/07 11:10:00;;;;;;;31.13;29.52;;;25.70;50.00;;;;;;5029191;28;20525;-85
2022/07/07 11:12:46;;;;;;;28.00;26.60;;;25.60;50.30;;;;;;5029317;28;20048;-85
2022/07/07 11:15:15;;;;;;;28.65;27.15;;;25.60;49.60;;;;;;4997671;28;20056;-84
2022/07/07 11:17:42;;;;;;;29.50;27.90;;;25.70;49.40;;;;;;5015874;28;20030;-85
2022/07/07 11:20:09;;;;;;;30.05;28.55;;;25.70;49.30;;;;;;5018505;28;20041;-85
2022/07/07 11:22:49;;;;;;;30.67;28.67;;;25.80;49.20;;;;;;5042060;28;20025;-85
2022/07/07 11:25:17;;;;;;;30.88;29.20;;;25.90;49.20;;;;;;5029621;28;20391;-85
2022/07/07 11:27:44;;;;;;;33.67;31.88;;;25.90;49.10;;;;;;5029682;28;20033;-85
2022/07/07 11:30:10;;;;;;;32.53;30.88;;;26.00;48.70;;;;;;5012607;28;20041;-84
2022/07/07 11:32:40;;;;;;;32.28;30.70;;;26.20;48.70;;;;;;5031869;28;20021;-85
2022/07/07 11:35:07;;;;;;;32.97;31.27;;;26.40;47.80;;;;;;5029792;28;20041;-85
2022/07/07 11:37:34;;;;;;;34.08;32.38;;;26.60;47.30;;;;;;5022066;28;20038;-85
2022/07/07 11:40:00;;;;;;;32.42;30.48;;;26.60;46.90;;;;;;5020987;28;20033;-85
2022/07/07 11:42:27;;;;;;;33.08;31.40;;;26.60;47.00;;;;;;5029552;28;20399;-85
2022/07/07 11:44:53;;;;;;;33.75;32.05;;;26.60;46.60;;;;;;5045818;28;20037;-85
2022/07/07 11:47:19;;;;;;;35.55;33.75;;;26.50;46.80;;;;;;5030505;28;20030;-85
2022/07/07 11:49:45;;;;;;;35.80;34.05;;;26.60;46.90;;;;;;5017831;28;20045;-85
2022/07/07 11:52:13;;;;;;;34.70;33.00;;;26.60;46.20;;;;;;5039077;28;20029;-85
2022/07/07 11:54:43;;;;;;;32.80;31.20;;;26.50;46.20;;;;;;5046859;28;20041;-85
2022/07/07 11:57:09;;;;;;;35.33;33.53;;;26.40;46.60;;;;;;5030783;28;20029;-85
2022/07/07 11:59:35;;;;;;;35.53;33.70;;;26.40;46.10;;;;;;5027188;28;20045;-85
2022/07/07 12:02:14;;;;;;;34.10;32.40;;;26.60;45.50;;;;;;5030082;28;20038;-85
2022/07/07 12:04:40;;;;;;;35.28;33.50;;;26.70;45.10;;;;;;5022213;28;20045;-85
2022/07/07 12:07:10;;;;;;;37.63;35.63;;;26.80;45.70;;;;;;5022302;28;20507;-85
2022/07/07 12:09:36;;;;;;;36.70;34.70;;;26.80;46.00;;;;;;5017297;28;20044;-85
2022/07/07 12:12:02;;;;;;;41.63;39.47;;;26.70;46.40;;;;;;5045245;28;20040;-84
2022/07/07 12:14:29;;;;;;;45.45;43.03;;;26.60;46.40;;;;;;5016611;28;20403;-85
2022/07/07 12:16:56;;;;;;;33.58;31.83;;;26.60;46.50;;;;;;5017005;28;20065;-85
2022/07/07 12:19:22;;;;;;;37.15;35.15;;;26.60;46.00;;;;;;5039327;28;20028;-85
2022/07/07 12:21:49;;;;;;;37.53;35.38;;;26.60;46.00;;;;;;5045351;28;20025;-85
2022/07/07 12:24:22;;;;;;;41.35;39.33;;;26.70;45.80;;;;;;5045314;28;20036;-85
2022/07/07 12:26:49;;;;;;;36.63;34.65;;;26.60;45.90;;;;;;5044758;28;20036;-85
2022/07/07 12:29:19;;;;;;;37.75;35.95;;;26.60;46.70;;;;;;5012467;28;20049;-84
2022/07/07 12:31:46;;;;;;;35.38;33.63;;;26.50;46.70;;;;;;5044697;28;20033;-84
2022/07/07 12:34:14;;;;;;;36.75;34.85;;;26.30;47.20;;;;;;5027523;28;20068;-85